Time;durP1;ratioP1;P1;durP2;ratioP2;P2;SDS_P1;SDS_P2;PMS_P1;PMS_P2;Temp;Humidity;BMP_temperature;BMP_pressure;BME280_temperature;BME280_humidity;BME280_pressure;Samples;Min_cycle;Max_cycle;Signal;HPM_P1;HPM_P2
2023/09/08 00:02:00;;;;;;;12.90;7.18;;;;;;;20.98;74.22;100090.13;5084618;28;20031;-73
2023/09/08 00:04:25;;;;;;;12.95;7.55;;;;;;;20.93;74.66;100093.06;5084001;28;20492;-74
2023/09/08 00:06:50;;;;;;;10.07;6.57;;;;;;;20.88;74.15;100089.31;5084050;28;20869;-72
2023/09/08 00:09:16;;;;;;;13.65;7.28;;;;;;;20.83;74.47;100091.41;5084293;28;20509;-72
2023/09/08 00:11:41;;;;;;;13.43;7.95;;;;;;;20.78;75.10;100086.88;5084778;28;20082;-72
2023/09/08 00:14:07;;;;;;;14.57;7.18;;;;;;;20.73;75.15;100081.47;5084031;28;20040;-72
2023/09/08 00:16:32;;;;;;;10.07;6.33;;;;;;;20.65;75.31;100075.63;5084692;28;20123;-72
2023/09/08 00:18:58;;;;;;;11.77;7.40;;;;;;;20.60;74.98;100081.34;5085477;28;20253;-74
2023/09/08 00:21:24;;;;;;;13.05;6.93;;;;;;;20.53;75.03;100079.06;5084434;28;20040;-72
2023/09/08 00:23:49;;;;;;;14.18;7.18;;;;;;;20.49;75.06;100078.06;5083767;28;20040;-73
2023/09/08 00:26:15;;;;;;;12.80;7.33;;;;;;;20.53;75.83;100076.28;5084489;28;20058;-72
2023/09/08 00:28:40;;;;;;;11.47;6.93;;;;;;;20.54;75.39;100077.09;5083110;28;20257;-72
2023/09/08 00:31:05;;;;;;;13.63;7.33;;;;;;;20.54;75.19;100090.94;5083400;28;20044;-72
2023/09/08 00:33:30;;;;;;;11.43;7.00;;;;;;;20.48;75.15;100081.97;5082464;28;20135;-74
2023/09/08 00:35:57;;;;;;;13.90;8.32;;;;;;;20.46;74.84;100077.91;5083403;28;20260;-72
2023/09/08 00:38:23;;;;;;;11.65;6.93;;;;;;;20.47;75.21;100087.84;5083515;28;20035;-72
2023/09/08 00:40:48;;;;;;;9.75;7.03;;;;;;;20.42;75.41;100078.53;5084212;28;20032;-72
2023/09/08 00:43:13;;;;;;;11.13;7.18;;;;;;;20.38;75.48;100077.56;5083601;28;20036;-72
2023/09/08 00:45:41;;;;;;;15.30;7.80;;;;;;;20.36;75.27;100084.59;5083628;28;20081;-73
2023/09/08 00:48:07;;;;;;;10.98;6.82;;;;;;;20.27;74.90;100081.78;5083271;28;20759;-73
2023/09/08 00:50:34;;;;;;;13.77;7.53;;;;;;;20.24;75.78;100083.25;5083079;28;20032;-73
2023/09/08 00:53:00;;;;;;;9.35;6.97;;;;;;;20.25;75.56;100081.31;5082633;28;20032;-73
2023/09/08 00:55:25;;;;;;;12.43;8.05;;;;;;;20.21;75.83;100077.53;5082886;28;20109;-80
2023/09/08 00:57:50;;;;;;;10.85;7.85;;;;;;;20.16;75.57;100076.56;5083661;28;20519;-80
2023/09/08 01:00:16;;;;;;;14.70;7.50;;;;;;;20.19;75.79;100080.66;5083301;28;20032;-80
2023/09/08 01:02:41;;;;;;;13.32;7.22;;;;;;;20.24;75.88;100088.00;5083198;28;20036;-81
2023/09/08 01:05:07;;;;;;;10.05;6.68;;;;;;;20.21;75.88;100085.84;5082838;28;20039;-80
2023/09/08 01:07:32;;;;;;;10.02;6.75;;;;;;;20.24;75.68;100082.44;5082560;28;20056;-81
2023/09/08 01:10:04;;;;;;;13.30;6.95;;;;;;;20.20;75.36;100087.00;5082629;28;20302;-80
2023/09/08 01:12:29;;;;;;;9.82;6.50;;;;;;;20.20;75.71;100089.78;5082984;28;20028;-80
2023/09/08 01:14:55;;;;;;;11.98;7.20;;;;;;;20.15;75.58;100086.00;5082305;28;20031;-80
2023/09/08 01:17:20;;;;;;;11.68;7.05;;;;;;;20.12;75.65;100077.53;5082978;28;20032;-80
2023/09/08 01:19:48;;;;;;;12.60;6.53;;;;;;;20.06;75.54;100080.41;5082939;28;20464;-80
2023/09/08 01:22:25;;;;;;;13.02;7.57;;;;;;;20.09;75.54;100084.53;5082668;28;20193;-81
2023/09/08 01:25:17;;;;;;;10.85;7.15;;;;;;;20.11;75.53;100073.97;5082695;28;20024;-80
2023/09/08 01:27:48;;;;;;;14.73;6.95;;;;;;;20.16;75.59;100076.56;5083222;28;20166;-81
2023/09/08 01:30:14;;;;;;;12.55;6.93;;;;;;;20.17;75.34;100071.84;5082900;28;20076;-78
2023/09/08 01:32:40;;;;;;;11.63;7.28;;;;;;;20.22;75.33;100079.19;5082899;28;20051;-81
2023/09/08 01:35:07;;;;;;;12.00;8.20;;;;;;;20.20;74.66;100070.41;5082013;28;20028;-80
2023/09/08 01:37:32;;;;;;;11.40;8.02;;;;;;;20.13;75.10;100076.41;5082535;28;20028;-81
2023/09/08 01:39:57;;;;;;;11.87;6.93;;;;;;;20.09;75.40;100069.88;5082853;28;20511;-80
2023/09/08 01:42:23;;;;;;;11.03;7.20;;;;;;;20.08;75.04;100077.34;5082778;28;20380;-81
2023/09/08 01:44:48;;;;;;;12.63;7.10;;;;;;;20.06;75.13;100072.13;5081437;28;20807;-80
2023/09/08 01:47:13;;;;;;;10.97;7.10;;;;;;;20.06;75.22;100068.53;5082342;28;20371;-80
2023/09/08 01:49:38;;;;;;;11.95;6.80;;;;;;;20.08;75.21;100069.06;5082545;28;20757;-81
2023/09/08 01:52:04;;;;;;;11.45;6.50;;;;;;;20.06;75.29;100072.13;5082425;28;20028;-80
2023/09/08 01:54:30;;;;;;;11.75;7.30;;;;;;;20.09;75.17;100064.34;5081596;28;20036;-80
2023/09/08 01:56:55;;;;;;;11.93;6.85;;;;;;;20.09;74.95;100069.88;5082560;28;20044;-80
2023/09/08 01:59:20;;;;;;;14.95;7.93;;;;;;;20.06;74.55;100063.81;5082178;28;20043;-80
2023/09/08 02:01:46;;;;;;;9.40;6.90;;;;;;;20.09;74.70;100062.41;5082309;28;20031;-80
2023/09/08 02:04:11;;;;;;;12.48;7.25;;;;;;;20.06;74.56;100060.22;5082124;28;20289;-80
2023/09/08 02:06:36;;;;;;;10.50;6.88;;;;;;;20.06;74.68;100051.94;5081970;28;20433;-80
2023/09/08 02:09:01;;;;;;;9.00;6.70;;;;;;;20.07;74.46;100050.81;5082562;28;20111;-80
2023/09/08 02:11:27;;;;;;;15.50;6.60;;;;;;;20.06;74.04;100052.75;5082744;28;20249;-80
2023/09/08 02:13:52;;;;;;;11.60;7.03;;;;;;;20.04;74.75;100054.19;5082301;28;20766;-80
2023/09/08 02:16:18;;;;;;;11.60;6.53;;;;;;;20.02;74.26;100059.25;5082730;28;20031;-80
2023/09/08 02:18:44;;;;;;;15.93;6.85;;;;;;;20.04;74.78;100056.97;5082188;28;20686;-81
2023/09/08 02:21:10;;;;;;;11.23;7.47;;;;;;;20.05;74.23;100058.63;5084275;28;20043;-81
2023/09/08 02:23:35;;;;;;;15.45;9.02;;;;;;;20.00;74.49;100055.97;5085757;28;20036;-81
2023/09/08 02:26:01;;;;;;;13.02;8.43;;;;;;;19.93;74.00;100060.03;5086051;28;20039;-81
2023/09/08 02:28:26;;;;;;;12.45;7.45;;;;;;;19.92;74.33;100050.13;5086507;28;20074;-81
2023/09/08 02:30:51;;;;;;;10.85;7.05;;;;;;;19.91;74.46;100054.00;5085828;28;20485;-81
2023/09/08 02:33:17;;;;;;;13.85;7.47;;;;;;;19.94;74.39;100053.38;5085905;28;20094;-80
2023/09/08 02:35:43;;;;;;;9.77;6.40;;;;;;;19.94;74.34;100047.84;5085230;28;20032;-81
2023/09/08 02:38:09;;;;;;;12.45;7.68;;;;;;;19.91;74.10;100047.69;5085875;28;20051;-79
2023/09/08 02:40:34;;;;;;;11.73;7.40;;;;;;;19.90;73.88;100049.63;5085873;28;20474;-80
2023/09/08 02:43:00;;;;;;;10.45;7.25;;;;;;;19.89;74.24;100056.28;5085151;28;20123;-80
2023/09/08 02:45:26;;;;;;;10.55;7.25;;;;;;;19.87;73.85;100053.00;5085421;28;20032;-80
2023/09/08 02:47:51;;;;;;;14.18;8.13;;;;;;;19.81;73.78;100049.59;5085897;28;20401;-81
2023/09/08 02:50:16;;;;;;;13.40;8.07;;;;;;;19.77;74.05;100058.88;5085835;28;20047;-80
2023/09/08 02:52:42;;;;;;;11.57;8.02;;;;;;;19.77;74.50;100058.88;5085732;28;20359;-80
2023/09/08 02:55:08;;;;;;;14.40;8.30;;;;;;;19.82;74.81;100058.72;5084585;28;20028;-80
2023/09/08 02:57:33;;;;;;;14.93;8.93;;;;;;;19.87;74.20;100053.00;5085647;28;20257;-80
2023/09/08 02:59:58;;;;;;;11.20;7.35;;;;;;;19.86;74.02;100054.16;5085851;28;20047;-81
2023/09/08 03:02:25;;;;;;;13.68;7.43;;;;;;;19.87;73.50;100052.22;5085781;28;20043;-81
2023/09/08 03:04:50;;;;;;;17.75;8.18;;;;;;;19.82;73.21;100051.22;5085075;28;20039;-80
2023/09/08 03:07:15;;;;;;;12.70;8.07;;;;;;;19.82;73.46;100067.00;5085026;28;20055;-80
2023/09/08 03:09:41;;;;;;;10.63;7.20;;;;;;;19.86;74.02;100061.63;5085532;28;20245;-80
2023/09/08 03:12:06;;;;;;;11.18;7.60;;;;;;;19.84;73.42;100067.50;5085002;28;20626;-80
2023/09/08 03:14:32;;;;;;;13.15;8.63;;;;;;;19.83;73.66;100057.59;5084944;28;20040;-80
2023/09/08 03:16:57;;;;;;;10.60;6.68;;;;;;;19.78;73.62;100055.78;5085181;28;20039;-80
2023/09/08 03:19:22;;;;;;;10.35;7.55;;;;;;;19.76;73.38;100049.75;5085369;28;20047;-80
2023/09/08 03:21:48;;;;;;;11.13;6.70;;;;;;;19.74;73.41;100051.19;5085180;28;20032;-80
2023/09/08 03:24:13;;;;;;;10.15;6.60;;;;;;;19.70;72.97;100042.72;5084756;28;20685;-73
2023/09/08 03:26:40;;;;;;;14.83;7.00;;;;;;;19.62;72.97;100049.88;5084416;28;20082;-72
2023/09/08 03:29:05;;;;;;;15.05;7.95;;;;;;;19.58;73.05;100046.09;5084457;28;20846;-72
2023/09/08 03:31:31;;;;;;;11.90;6.57;;;;;;;19.58;73.07;100046.09;5084091;28;20032;-71
2023/09/08 03:33:56;;;;;;;10.52;6.55;;;;;;;19.56;73.23;100048.38;5084472;28;20118;-72
2023/09/08 03:36:22;;;;;;;15.32;8.43;;;;;;;19.50;72.92;100044.13;5084215;28;20156;-73
2023/09/08 03:38:47;;;;;;;11.88;7.75;;;;;;;19.46;73.09;100043.94;5083896;28;20080;-72
2023/09/08 03:41:12;;;;;;;11.40;6.70;;;;;;;19.43;73.06;100048.16;5084097;28;20122;-72
2023/09/08 03:43:37;;;;;;;12.50;6.85;;;;;;;19.39;73.29;100038.88;5083392;28;20074;-73
2023/09/08 03:46:03;;;;;;;13.23;7.97;;;;;;;19.39;73.90;100033.34;5083750;28;20118;-73
2023/09/08 03:48:28;;;;;;;13.30;8.10;;;;;;;19.39;73.36;100046.34;5083709;28;20690;-72
2023/09/08 03:50:53;;;;;;;13.87;8.83;;;;;;;19.36;73.85;100045.03;5084227;28;20283;-72
2023/09/08 03:53:19;;;;;;;14.63;7.82;;;;;;;19.31;73.55;100043.22;5083672;28;21024;-73
2023/09/08 03:55:44;;;;;;;11.60;6.97;;;;;;;19.31;73.94;100045.16;5083521;28;20050;-72
2023/09/08 03:58:09;;;;;;;13.60;8.00;;;;;;;19.30;73.95;100049.06;5083528;28;20055;-72
2023/09/08 04:00:35;;;;;;;12.93;7.93;;;;;;;19.34;73.68;100055.59;5083824;28;20261;-72
2023/09/08 04:03:00;;;;;;;11.68;6.88;;;;;;;19.31;74.31;100048.75;5083384;28;20072;-72
2023/09/08 04:05:26;;;;;;;14.82;7.63;;;;;;;19.29;73.97;100044.66;5082763;28;20884;-72
2023/09/08 04:07:51;;;;;;;11.75;7.05;;;;;;;19.27;73.58;100046.94;5083031;28;20051;-72
2023/09/08 04:10:16;;;;;;;10.27;6.50;;;;;;;19.22;73.50;100054.22;5083896;28;20059;-72
2023/09/08 04:12:42;;;;;;;12.38;7.53;;;;;;;19.20;74.04;100045.44;5083570;28;20799;-72
2023/09/08 04:15:08;;;;;;;12.93;6.85;;;;;;;19.20;73.88;100055.69;5082945;28;20039;-72
2023/09/08 04:17:33;;;;;;;10.32;6.25;;;;;;;19.21;73.72;100043.50;5083316;28;20082;-73
2023/09/08 04:19:59;;;;;;;12.50;7.43;;;;;;;19.20;73.71;100045.44;5083574;28;20173;-74
2023/09/08 04:22:24;;;;;;;10.93;7.50;;;;;;;19.15;73.53;100042.81;5083169;28;20044;-72
2023/09/08 04:24:49;;;;;;;13.83;7.23;;;;;;;19.14;73.50;100043.94;5083306;28;20081;-80
2023/09/08 04:27:15;;;;;;;10.88;6.00;;;;;;;19.13;73.48;100047.81;5083795;28;20694;-80
2023/09/08 04:29:40;;;;;;;12.75;6.40;;;;;;;19.14;73.70;100041.16;5084107;28;20032;-80
2023/09/08 04:32:08;;;;;;;14.60;6.88;;;;;;;19.15;73.31;100051.09;5083672;28;20027;-80
2023/09/08 04:34:43;;;;;;;14.38;8.20;;;;;;;19.19;73.19;100043.81;5082765;28;20512;-72
2023/09/08 04:37:08;;;;;;;12.70;8.05;;;;;;;19.17;73.09;100035.03;5082656;28;20331;-73
2023/09/08 04:39:35;;;;;;;13.43;7.03;;;;;;;19.18;73.29;100039.41;5082804;28;20080;-72
2023/09/08 04:42:01;;;;;;;14.23;7.13;;;;;;;19.20;73.06;100036.34;5082955;28;20059;-73
2023/09/08 04:44:26;;;;;;;11.65;6.78;;;;;;;19.19;73.39;100046.56;5081731;28;20114;-72
2023/09/08 04:46:52;;;;;;;14.07;6.97;;;;;;;19.22;73.45;100045.13;5083437;28;20458;-72
2023/09/08 04:49:18;;;;;;;12.43;6.38;;;;;;;19.18;72.87;100044.94;5082652;28;20295;-72
2023/09/08 04:51:44;;;;;;;13.40;7.18;;;;;;;19.20;73.41;100047.41;5082620;28;20028;-74
2023/09/08 04:54:09;;;;;;;10.32;6.75;;;;;;;19.20;73.18;100048.19;5081344;28;20047;-74
2023/09/08 04:56:34;;;;;;;13.50;7.25;;;;;;;19.19;72.95;100043.00;5082586;28;20655;-73
2023/09/08 04:59:00;;;;;;;10.00;6.57;;;;;;;19.16;72.56;100046.41;5082969;28;20354;-72
2023/09/08 05:01:32;;;;;;;12.38;7.47;;;;;;;19.10;73.13;100032.66;5082812;28;20622;-73
2023/09/08 05:04:00;;;;;;;12.75;7.95;;;;;;;19.11;73.41;100033.50;5082459;28;20040;-73
2023/09/08 05:06:26;;;;;;;12.75;7.00;;;;;;;19.14;73.61;100035.63;5081883;28;20102;-72
2023/09/08 05:08:51;;;;;;;10.50;7.20;;;;;;;19.16;73.52;100047.19;5082554;28;20473;-72
2023/09/08 05:11:17;;;;;;;11.70;7.18;;;;;;;19.23;73.28;100044.00;5082746;28;20305;-72
2023/09/08 05:13:43;;;;;;;12.48;7.07;;;;;;;19.25;73.17;100045.31;5082353;28;20447;-72
2023/09/08 05:16:11;;;;;;;12.13;7.60;;;;;;;19.23;72.81;100042.03;5082712;28;20028;-73
2023/09/08 05:18:38;;;;;;;10.07;6.95;;;;;;;19.22;73.18;100039.59;5082280;28;20302;-72
2023/09/08 05:21:03;;;;;;;9.05;6.15;;;;;;;19.25;73.67;100045.31;5082693;28;20056;-73
2023/09/08 05:23:28;;;;;;;22.58;7.93;;;;;;;19.32;73.28;100044.03;5082168;28;20104;-72
2023/09/08 05:25:54;;;;;;;10.43;6.38;;;;;;;19.37;72.96;100043.91;5082722;28;20063;-73
2023/09/08 05:28:19;;;;;;;16.10;7.72;;;;;;;19.39;72.84;100049.91;5082232;28;20046;-72
2023/09/08 05:30:44;;;;;;;10.43;7.33;;;;;;;19.43;73.07;100039.84;5082432;28;20024;-72
2023/09/08 05:33:09;;;;;;;12.43;6.68;;;;;;;19.48;73.13;100045.25;5082261;28;20294;-72
2023/09/08 05:35:36;;;;;;;15.00;6.93;;;;;;;19.59;72.57;100039.44;5082359;28;20154;-81
2023/09/08 05:38:01;;;;;;;12.15;7.20;;;;;;;19.68;72.14;100039.47;5083064;28;20272;-80
2023/09/08 05:40:26;;;;;;;10.05;6.72;;;;;;;19.74;72.15;100042.91;5082381;28;20043;-80
2023/09/08 05:42:51;;;;;;;15.13;7.00;;;;;;;19.78;71.95;100038.34;5082653;28;20047;-80
2023/09/08 05:45:17;;;;;;;12.33;7.70;;;;;;;19.85;71.79;100044.25;5081483;28;20428;-72
2023/09/08 05:47:42;;;;;;;13.45;6.72;;;;;;;19.90;71.21;100038.56;5082873;28;20269;-72
2023/09/08 05:50:08;;;;;;;38.20;10.60;;;;;;;20.03;70.71;100038.75;5080656;28;20032;-73
2023/09/08 05:52:33;;;;;;;22.30;8.65;;;;;;;20.08;69.28;100035.84;5082692;28;20317;-76
2023/09/08 05:54:58;;;;;;;11.90;6.85;;;;;;;20.14;69.50;100040.09;5083676;28;20052;-77
2023/09/08 05:57:24;;;;;;;18.60;7.30;;;;;;;20.26;69.21;100038.63;5086636;28;20145;-78
2023/09/08 05:59:49;;;;;;;13.65;6.97;;;;;;;20.34;68.95;100037.03;5086083;28;20040;-77
2023/09/08 06:02:14;;;;;;;12.13;6.50;;;;;;;20.40;68.70;100036.53;5086472;28;20570;-77
2023/09/08 06:04:40;;;;;;;11.77;7.27;;;;;;;20.39;67.74;100040.44;5086448;28;20024;-77
2023/09/08 06:07:05;;;;;;;34.83;8.50;;;;;;;20.50;68.04;100040.13;5086007;28;20289;-78
2023/09/08 06:09:30;;;;;;;12.77;6.57;;;;;;;20.59;67.60;100040.94;5086985;28;20348;-80
2023/09/08 06:11:55;;;;;;;9.60;5.60;;;;;;;20.64;67.54;100037.19;5085959;28;20285;-78
2023/09/08 06:14:21;;;;;;;11.13;6.10;;;;;;;20.63;67.87;100038.31;5086614;28;20355;-78
2023/09/08 06:16:46;;;;;;;8.70;5.60;;;;;;;20.57;68.57;100040.44;5086099;28;20261;-77
2023/09/08 06:19:12;;;;;;;18.15;6.40;;;;;;;20.56;68.92;100038.00;5086366;28;20780;-77
2023/09/08 06:21:37;;;;;;;11.65;6.18;;;;;;;20.56;68.63;100036.06;5086250;28;20766;-79
2023/09/08 06:24:03;;;;;;;12.97;5.97;;;;;;;20.59;69.22;100043.69;5085979;28;20038;-79
2023/09/08 06:26:28;;;;;;;9.10;5.85;;;;;;;20.57;69.38;100040.44;5086421;28;20264;-82
2023/09/08 06:28:53;;;;;;;12.35;6.35;;;;;;;20.58;69.03;100042.09;5085485;28;20058;-78
2023/09/08 06:31:19;;;;;;;11.60;6.47;;;;;;;20.64;69.04;100046.28;5086193;28;20122;-77
2023/09/08 06:33:44;;;;;;;9.98;5.97;;;;;;;20.69;68.64;100041.72;5084163;28;20277;-77
2023/09/08 06:36:09;;;;;;;13.63;6.50;;;;;;;20.74;67.32;100044.34;5084124;28;20037;-77
2023/09/08 06:38:35;;;;;;;11.38;6.38;;;;;;;20.82;67.98;100046.28;5084818;28;20636;-80
2023/09/08 06:41:00;;;;;;;10.00;6.03;;;;;;;20.87;66.83;100039.75;5086191;28;20482;-77
2023/09/08 06:43:26;;;;;;;10.98;6.18;;;;;;;20.85;68.25;100048.41;5085399;28;20492;-79
2023/09/08 06:45:51;;;;;;;10.05;7.13;;;;;;;20.85;68.39;100045.63;5086854;28;20773;-86
2023/09/08 06:48:16;;;;;;;9.73;5.33;;;;;;;20.85;68.12;100048.41;5085650;28;20130;-80
2023/09/08 06:50:42;;;;;;;12.27;6.90;;;;;;;20.93;67.21;100046.75;5086065;28;20260;-81
2023/09/08 06:53:07;;;;;;;11.57;6.50;;;;;;;21.01;66.81;100039.63;5085589;28;20040;-80
2023/09/08 06:55:32;;;;;;;10.27;6.18;;;;;;;21.08;66.16;100042.69;5085049;28;20054;-81
2023/09/08 06:57:58;;;;;;;8.55;6.20;;;;;;;21.15;66.88;100049.69;5085154;28;20039;-80
2023/09/08 07:00:23;;;;;;;9.52;5.85;;;;;;;21.20;66.04;100043.97;5085486;28;20090;-80
2023/09/08 07:02:49;;;;;;;14.18;7.00;;;;;;;21.26;66.39;100044.59;5085377;28;20485;-81
2023/09/08 07:05:15;;;;;;;9.88;6.32;;;;;;;21.30;65.93;100043.59;5084283;28;20097;-82
2023/09/08 07:07:41;;;;;;;13.70;6.72;;;;;;;21.31;66.26;100048.00;5084638;28;20047;-82
2023/09/08 07:10:07;;;;;;;10.85;6.45;;;;;;;21.27;67.71;100055.38;5085839;28;20042;-83
2023/09/08 07:12:32;;;;;;;10.50;6.63;;;;;;;21.17;68.65;100042.69;5086506;28;20031;-82
2023/09/08 07:14:59;;;;;;;12.80;6.20;;;;;;;21.21;67.92;100048.38;5085319;28;20157;-81
2023/09/08 07:17:25;;;;;;;11.40;7.07;;;;;;;21.26;67.78;100045.41;5085668;28;20249;-81
2023/09/08 07:19:50;;;;;;;10.20;5.78;;;;;;;21.36;67.16;100046.22;5085269;28;20101;-82
2023/09/08 07:22:15;;;;;;;11.47;6.17;;;;;;;21.46;67.24;100045.81;5085513;28;20089;-82
2023/09/08 07:24:41;;;;;;;9.55;6.57;;;;;;;21.52;67.54;100040.94;5085150;28;20284;-82
2023/09/08 07:27:06;;;;;;;10.15;4.97;;;;;;;21.56;67.58;100051.00;5088435;28;20039;-83
2023/09/08 07:29:32;;;;;;;12.20;7.07;;;;;;;21.63;67.55;100044.13;5092404;28;20107;-82
2023/09/08 07:31:57;;;;;;;16.63;6.57;;;;;;;21.68;66.83;100049.50;5089907;28;20097;-84
2023/09/08 07:34:23;;;;;;;14.20;7.35;;;;;;;21.72;67.47;100046.88;5086293;28;20036;-83
2023/09/08 07:36:48;;;;;;;8.05;5.20;;;;;;;21.66;67.18;100049.03;5085973;28;20036;-84
2023/09/08 07:39:13;;;;;;;12.17;6.33;;;;;;;21.71;67.35;100051.59;5085404;28;20026;-82
2023/09/08 07:41:40;;;;;;;11.40;5.40;;;;;;;21.71;68.17;100051.59;5088416;28;20260;-83
2023/09/08 07:44:06;;;;;;;10.10;5.72;;;;;;;21.74;67.52;100050.94;5085632;28;20123;-82
2023/09/08 07:46:31;;;;;;;9.00;4.85;;;;;;;21.75;67.41;100058.09;5085601;28;20039;-84
2023/09/08 07:48:58;;;;;;;9.40;5.85;;;;;;;21.80;67.21;100059.88;5085505;28;20036;-83
2023/09/08 07:51:23;;;;;;;10.60;4.82;;;;;;;21.89;66.38;100057.06;5086124;28;20040;-84
2023/09/08 07:53:49;;;;;;;10.52;6.07;;;;;;;21.99;66.02;100061.41;5085465;28;20343;-82
2023/09/08 07:56:14;;;;;;;9.88;6.07;;;;;;;22.07;66.71;100059.75;5085123;28;20085;-83
2023/09/08 07:58:39;;;;;;;9.10;4.88;;;;;;;22.04;66.35;100062.06;5085411;28;20024;-86
2023/09/08 08:01:05;;;;;;;11.02;5.47;;;;;;;22.16;65.51;100055.78;5085314;28;20469;-84
2023/09/08 08:03:30;;;;;;;8.55;5.05;;;;;;;22.31;64.58;100055.53;5084764;28;20114;-84
2023/09/08 08:05:58;;;;;;;8.07;5.30;;;;;;;22.41;64.21;100049.56;5085290;28;20067;-83
2023/09/08 08:08:23;;;;;;;10.35;5.50;;;;;;;22.49;64.06;100053.41;5085720;28;20257;-85
2023/09/08 08:10:48;;;;;;;9.32;5.15;;;;;;;22.54;63.59;100055.97;5085663;28;20023;-83
2023/09/08 08:13:14;;;;;;;13.18;6.18;;;;;;;22.60;63.83;100048.25;5084943;28;20857;-84
2023/09/08 08:15:40;;;;;;;8.30;5.40;;;;;;;22.65;63.43;100050.00;5082580;28;20076;-76
2023/09/08 08:18:06;;;;;;;33.90;7.82;;;;;;;22.62;64.15;100043.97;5081184;28;20036;-77
2023/09/08 08:20:34;;;;;;;12.73;5.78;;;;;;;22.67;64.49;100051.34;5082890;28;20035;-75
2023/09/08 08:23:04;;;;;;;13.85;6.93;;;;;;;22.67;65.02;100050.50;5081842;28;20085;-77
2023/09/08 08:25:29;;;;;;;14.85;6.18;;;;;;;22.82;64.34;100046.31;5082498;28;20708;-78
2023/09/08 08:27:56;;;;;;;12.05;5.65;;;;;;;22.86;64.39;100047.25;5082857;28;20036;-75
2023/09/08 08:30:21;;;;;;;12.20;6.60;;;;;;;22.88;63.42;100042.16;5083342;28;20040;-76
2023/09/08 08:32:46;;;;;;;9.65;5.38;;;;;;;22.93;63.58;100053.03;5083610;28;20028;-75
2023/09/08 08:35:12;;;;;;;12.87;6.97;;;;;;;23.00;63.64;100051.69;5087269;28;20032;-77
2023/09/08 08:37:40;;;;;;;8.15;5.65;;;;;;;22.98;63.93;100044.47;5087797;28;20815;-75
2023/09/08 08:40:06;;;;;;;13.23;5.53;;;;;;;23.04;64.08;100041.50;5087496;28;20060;-75
2023/09/08 08:42:32;;;;;;;10.57;5.70;;;;;;;23.04;64.20;100044.28;5088067;28;20027;-75
2023/09/08 08:44:58;;;;;;;24.38;6.63;;;;;;;23.09;65.25;100046.81;5087803;28;20024;-76
2023/09/08 08:47:25;;;;;;;12.48;6.40;;;;;;;23.08;65.54;100046.03;5088395;28;20587;-75
2023/09/08 08:49:51;;;;;;;12.73;6.03;;;;;;;23.08;66.35;100048.00;5086580;28;20032;-75
2023/09/08 08:52:17;;;;;;;12.43;6.28;;;;;;;23.26;66.25;100045.84;5084617;28;20039;-74
2023/09/08 08:54:43;;;;;;;17.85;7.15;;;;;;;23.21;66.60;100051.59;5081589;28;20033;-76
2023/09/08 08:57:09;;;;;;;10.23;5.40;;;;;;;23.23;65.36;100048.50;5086151;28;20404;-78
2023/09/08 08:59:34;;;;;;;19.70;6.65;;;;;;;23.37;64.04;100048.97;5088871;28;20027;-75
2023/09/08 09:02:01;;;;;;;8.65;5.35;;;;;;;23.48;63.20;100049.38;5088608;28;20032;-76
2023/09/08 09:04:27;;;;;;;10.60;5.70;;;;;;;23.57;62.82;100049.25;5087552;28;20028;-76
2023/09/08 09:06:53;;;;;;;10.75;6.60;;;;;;;23.63;62.19;100056.22;5084629;28;20044;-76
2023/09/08 09:09:19;;;;;;;16.33;6.50;;;;;;;23.70;61.73;100054.81;5084987;28;20039;-76
2023/09/08 09:11:44;;;;;;;9.60;5.65;;;;;;;23.73;61.51;100048.56;5083918;28;20036;-76
2023/09/08 09:14:10;;;;;;;30.27;6.43;;;;;;;23.79;61.09;100041.59;5088333;28;20059;-86
2023/09/08 09:16:40;;;;;;;12.82;6.60;;;;;;;23.90;61.46;100047.50;5089844;28;20035;-85
2023/09/08 09:19:05;;;;;;;11.57;5.78;;;;;;;23.96;61.04;100050.88;5089317;28;20024;-88
2023/09/08 09:21:47;;;;;;;167.73;26.80;;;;;;;24.03;61.53;100042.72;5089258;28;20032;-84
2023/09/08 09:24:17;;;;;;;12.05;5.72;;;;;;;24.04;61.60;100046.34;5092111;28;20340;-77
2023/09/08 09:26:42;;;;;;;16.10;6.43;;;;;;;24.11;61.76;100052.94;5090453;28;20126;-75
2023/09/08 09:29:14;;;;;;;8.20;5.50;;;;;;;24.16;62.26;100045.50;5092477;28;20024;-75
2023/09/08 09:31:53;;;;;;;18.80;6.57;;;;;;;24.10;62.65;100051.28;5096895;28;20028;-76
2023/09/08 09:34:20;;;;;;;12.65;5.88;;;;;;;24.10;62.30;100053.28;5095714;28;20024;-76
2023/09/08 09:36:49;;;;;;;8.07;5.20;;;;;;;24.17;62.09;100045.16;5098768;28;20535;-77
2023/09/08 09:39:16;;;;;;;19.85;7.15;;;;;;;24.27;61.08;100041.09;5097315;28;20028;-76
2023/09/08 09:41:42;;;;;;;11.13;6.00;;;;;;;24.32;60.68;100042.81;5097248;28;20051;-76
2023/09/08 09:44:08;;;;;;;17.00;6.87;;;;;;;24.42;60.38;100049.88;5094679;28;20067;-75
2023/09/08 09:46:33;;;;;;;8.85;5.72;;;;;;;24.50;58.79;100046.13;5096092;28;20291;-75
2023/09/08 09:48:59;;;;;;;7.55;4.60;;;;;;;24.62;58.31;100047.25;5096620;28;20611;-75
2023/09/08 09:51:24;;;;;;;13.82;5.75;;;;;;;24.66;58.61;100048.16;5097007;28;20019;-76
2023/09/08 09:53:50;;;;;;;8.63;4.95;;;;;;;24.74;57.96;100041.63;5096467;28;20134;-76
2023/09/08 09:56:17;;;;;;;12.27;5.53;;;;;;;24.89;57.21;100040.06;5097014;28;20035;-76
2023/09/08 09:58:43;;;;;;;7.72;5.22;;;;;;;24.96;57.03;100039.44;5095414;28;20034;-75
2023/09/08 10:01:11;;;;;;;8.57;4.88;;;;;;;25.00;57.46;100034.78;5090048;28;20031;-75
2023/09/08 10:03:38;;;;;;;60.83;12.02;;;;;;;25.01;58.27;100042.00;5095257;28;20024;-78
2023/09/08 10:06:04;;;;;;;79.30;13.43;;;;;;;25.05;58.17;100039.28;5087206;28;20193;-76
2023/09/08 10:08:32;;;;;;;9.02;5.65;;;;;;;25.08;56.94;100040.56;5089064;28;20115;-78
2023/09/08 10:11:00;;;;;;;11.32;6.18;;;;;;;25.10;57.91;100030.66;5087673;28;20038;-73
2023/09/08 10:13:33;;;;;;;11.15;5.28;;;;;;;25.16;58.38;100037.59;5086797;28;20031;-74
2023/09/08 10:16:01;;;;;;;;;;;;;;;25.16;56.92;100042.38;5089405;28;20032;-73
2023/09/08 10:18:28;;;;;;;9.13;5.13;;;;;;;25.18;56.58;100045.63;5088605;28;20078;-73
2023/09/08 10:20:59;;;;;;;9.73;5.80;;;;;;;25.25;57.33;100043.00;5089415;28;20044;-79
2023/09/08 10:23:34;;;;;;;9.32;5.00;;;;;;;25.31;56.15;100035.19;5089393;28;20400;-75
2023/09/08 10:26:05;;;;;;;6.57;4.43;;;;;;;25.38;57.06;100037.34;5090373;28;20024;-85
2023/09/08 10:28:32;;;;;;;8.13;4.55;;;;;;;25.42;56.16;100038.25;5089234;28;20036;-83
2023/09/08 10:30:58;;;;;;;12.63;5.55;;;;;;;25.45;55.27;100043.09;5085985;28;20100;-79
2023/09/08 10:33:25;;;;;;;10.23;5.63;;;;;;;25.58;54.26;100034.63;5087879;28;20032;-78
2023/09/08 10:35:51;;;;;;;9.05;4.90;;;;;;;25.71;52.98;100038.97;5089652;28;20047;-78
2023/09/08 10:38:27;;;;;;;9.35;5.93;;;;;;;25.71;53.02;100033.38;5090213;28;20032;-83
2023/09/08 10:41:13;;;;;;;20.10;6.82;;;;;;;25.76;53.31;100029.50;5087279;28;20840;-78
2023/09/08 10:43:38;;;;;;;14.85;6.00;;;;;;;25.82;54.02;100032.81;5082759;28;20038;-78
2023/09/08 10:46:20;;;;;;;14.52;4.63;;;;;;;25.86;54.56;100030.91;5085597;28;20032;-78
2023/09/08 10:48:45;;;;;;;12.20;5.07;;;;;;;25.93;54.51;100036.69;5084471;28;20040;-78
2023/09/08 10:51:14;;;;;;;10.87;5.67;;;;;;;25.97;53.69;100034.78;5085286;28;20043;-78
2023/09/08 10:53:40;;;;;;;9.88;4.85;;;;;;;26.03;53.92;100037.28;5084122;28;20687;-77
2023/09/08 10:56:06;;;;;;;10.02;6.45;;;;;;;26.09;53.75;100035.81;5084902;28;20040;-77
2023/09/08 10:58:38;;;;;;;74.25;13.27;;;;;;;26.14;53.76;100029.94;5084625;28;20032;-77
2023/09/08 11:01:04;;;;;;;115.03;15.93;;;;;;;26.17;53.69;100034.00;5084887;28;20036;-79
2023/09/08 11:03:39;;;;;;;11.13;5.30;;;;;;;26.21;53.06;100032.91;5083215;28;20042;-79
2023/09/08 11:06:16;;;;;;;26.20;6.95;;;;;;;26.21;53.14;100032.09;5084448;28;20749;-78
2023/09/08 11:08:43;;;;;;;11.13;5.35;;;;;;;26.22;52.69;100037.31;5085354;28;20063;-78
2023/09/08 11:11:11;;;;;;;8.60;4.88;;;;;;;26.28;52.81;100028.66;5084487;28;20039;-78
2023/09/08 11:13:36;;;;;;;10.10;5.57;;;;;;;26.34;51.18;100035.56;5083083;28;20123;-78
2023/09/08 11:16:02;;;;;;;11.90;4.75;;;;;;;26.35;51.84;100026.00;5084256;28;20038;-78